sensor_id;sensor_type;location;lat;lon;timestamp;P1;durP1;ratioP1;P2;durP2;ratioP2
76495;SDS011;65329;52.544;4.662;2024-01-30T00:01:10;22.48;;;12.70;;
76495;SDS011;65329;52.544;4.662;2024-01-30T00:03:38;21.17;;;11.65;;
76495;SDS011;65329;52.544;4.662;2024-01-30T00:06:05;18.67;;;12.15;;
76495;SDS011;65329;52.544;4.662;2024-01-30T00:08:32;22.27;;;14.13;;
76495;SDS011;65329;52.544;4.662;2024-01-30T00:10:59;20.58;;;11.57;;
76495;SDS011;65329;52.544;4.662;2024-01-30T00:13:27;20.08;;;12.40;;
76495;SDS011;65329;52.544;4.662;2024-01-30T00:15:54;21.27;;;12.38;;
76495;SDS011;65329;52.544;4.662;2024-01-30T00:18:21;22.65;;;13.07;;
76495;SDS011;65329;52.544;4.662;2024-01-30T00:20:48;25.40;;;12.82;;
76495;SDS011;65329;52.544;4.662;2024-01-30T00:23:15;26.73;;;13.77;;
76495;SDS011;65329;52.544;4.662;2024-01-30T00:25:42;17.67;;;11.82;;
76495;SDS011;65329;52.544;4.662;2024-01-30T00:28:09;21.55;;;11.68;;
76495;SDS011;65329;52.544;4.662;2024-01-30T00:30:36;24.88;;;12.75;;
76495;SDS011;65329;52.544;4.662;2024-01-30T00:33:04;25.35;;;13.85;;
76495;SDS011;65329;52.544;4.662;2024-01-30T00:35:31;21.40;;;12.95;;
76495;SDS011;65329;52.544;4.662;2024-01-30T00:37:58;21.42;;;14.23;;
76495;SDS011;65329;52.544;4.662;2024-01-30T00:40:25;24.55;;;14.15;;
76495;SDS011;65329;52.544;4.662;2024-01-30T00:42:53;22.33;;;12.23;;
76495;SDS011;65329;52.544;4.662;2024-01-30T00:45:19;20.75;;;12.70;;
76495;SDS011;65329;52.544;4.662;2024-01-30T00:47:47;24.55;;;13.75;;
76495;SDS011;65329;52.544;4.662;2024-01-30T00:50:14;19.80;;;12.02;;
76495;SDS011;65329;52.544;4.662;2024-01-30T00:52:41;22.98;;;12.73;;
76495;SDS011;65329;52.544;4.662;2024-01-30T00:55:08;23.45;;;11.50;;
76495;SDS011;65329;52.544;4.662;2024-01-30T00:57:35;18.90;;;11.77;;
76495;SDS011;65329;52.544;4.662;2024-01-30T01:00:03;21.85;;;11.68;;
76495;SDS011;65329;52.544;4.662;2024-01-30T01:02:33;21.60;;;12.10;;
76495;SDS011;65329;52.544;4.662;2024-01-30T01:05:04;22.25;;;10.68;;
76495;SDS011;65329;52.544;4.662;2024-01-30T01:07:31;21.80;;;13.23;;
76495;SDS011;65329;52.544;4.662;2024-01-30T01:09:59;19.77;;;11.35;;
76495;SDS011;65329;52.544;4.662;2024-01-30T01:12:26;19.75;;;10.90;;
76495;SDS011;65329;52.544;4.662;2024-01-30T01:14:53;18.35;;;10.60;;
76495;SDS011;65329;52.544;4.662;2024-01-30T01:17:20;22.45;;;12.32;;
76495;SDS011;65329;52.544;4.662;2024-01-30T01:19:47;19.00;;;11.18;;
76495;SDS011;65329;52.544;4.662;2024-01-30T01:22:15;23.33;;;12.23;;
76495;SDS011;65329;52.544;4.662;2024-01-30T01:24:44;22.80;;;11.45;;
76495;SDS011;65329;52.544;4.662;2024-01-30T01:27:11;17.40;;;11.18;;
76495;SDS011;65329;52.544;4.662;2024-01-30T01:29:38;18.83;;;11.52;;
76495;SDS011;65329;52.544;4.662;2024-01-30T01:32:05;21.23;;;10.20;;
76495;SDS011;65329;52.544;4.662;2024-01-30T01:34:32;19.48;;;11.38;;
76495;SDS011;65329;52.544;4.662;2024-01-30T01:36:59;19.58;;;11.80;;
76495;SDS011;65329;52.544;4.662;2024-01-30T01:39:26;20.73;;;11.43;;
76495;SDS011;65329;52.544;4.662;2024-01-30T01:41:53;19.10;;;10.95;;
76495;SDS011;65329;52.544;4.662;2024-01-30T01:44:20;23.98;;;10.43;;
76495;SDS011;65329;52.544;4.662;2024-01-30T01:46:47;18.30;;;10.00;;
76495;SDS011;65329;52.544;4.662;2024-01-30T01:49:15;19.42;;;10.90;;
76495;SDS011;65329;52.544;4.662;2024-01-30T01:51:42;17.92;;;10.35;;
76495;SDS011;65329;52.544;4.662;2024-01-30T01:54:11;19.77;;;10.93;;
76495;SDS011;65329;52.544;4.662;2024-01-30T01:56:39;17.83;;;10.15;;
76495;SDS011;65329;52.544;4.662;2024-01-30T01:59:07;17.40;;;10.02;;
76495;SDS011;65329;52.544;4.662;2024-01-30T02:01:38;18.08;;;10.48;;
76495;SDS011;65329;52.544;4.662;2024-01-30T02:04:05;18.17;;;9.40;;
76495;SDS011;65329;52.544;4.662;2024-01-30T02:06:34;20.67;;;11.27;;
76495;SDS011;65329;52.544;4.662;2024-01-30T02:09:01;18.10;;;10.55;;
76495;SDS011;65329;52.544;4.662;2024-01-30T02:11:28;20.60;;;11.90;;
76495;SDS011;65329;52.544;4.662;2024-01-30T02:13:55;19.52;;;9.68;;
76495;SDS011;65329;52.544;4.662;2024-01-30T02:16:22;17.30;;;9.82;;
76495;SDS011;65329;52.544;4.662;2024-01-30T02:18:50;16.00;;;9.77;;
76495;SDS011;65329;52.544;4.662;2024-01-30T02:21:17;14.68;;;9.40;;
76495;SDS011;65329;52.544;4.662;2024-01-30T02:23:48;18.13;;;10.00;;
76495;SDS011;65329;52.544;4.662;2024-01-30T02:26:17;18.70;;;9.38;;
76495;SDS011;65329;52.544;4.662;2024-01-30T02:28:44;18.23;;;10.32;;
76495;SDS011;65329;52.544;4.662;2024-01-30T02:31:11;17.02;;;10.07;;
76495;SDS011;65329;52.544;4.662;2024-01-30T02:33:38;15.40;;;10.52;;
76495;SDS011;65329;52.544;4.662;2024-01-30T02:36:05;16.52;;;9.73;;
76495;SDS011;65329;52.544;4.662;2024-01-30T02:38:32;16.98;;;10.85;;
76495;SDS011;65329;52.544;4.662;2024-01-30T02:40:59;16.90;;;11.15;;
76495;SDS011;65329;52.544;4.662;2024-01-30T02:43:26;16.80;;;9.07;;
76495;SDS011;65329;52.544;4.662;2024-01-30T02:45:53;19.25;;;11.00;;
76495;SDS011;65329;52.544;4.662;2024-01-30T02:48:20;17.42;;;10.45;;
76495;SDS011;65329;52.544;4.662;2024-01-30T02:50:47;18.50;;;10.23;;
76495;SDS011;65329;52.544;4.662;2024-01-30T02:53:14;18.55;;;10.43;;
76495;SDS011;65329;52.544;4.662;2024-01-30T02:55:41;19.85;;;11.43;;
76495;SDS011;65329;52.544;4.662;2024-01-30T02:58:09;16.88;;;10.90;;
76495;SDS011;65329;52.544;4.662;2024-01-30T03:00:36;17.52;;;10.57;;
76495;SDS011;65329;52.544;4.662;2024-01-30T03:03:03;16.30;;;9.25;;
76495;SDS011;65329;52.544;4.662;2024-01-30T03:05:30;18.45;;;9.93;;
76495;SDS011;65329;52.544;4.662;2024-01-30T03:07:57;19.02;;;11.77;;
76495;SDS011;65329;52.544;4.662;2024-01-30T03:10:25;16.50;;;10.63;;
76495;SDS011;65329;52.544;4.662;2024-01-30T03:12:52;18.25;;;9.05;;
76495;SDS011;65329;52.544;4.662;2024-01-30T03:15:19;19.85;;;11.15;;
76495;SDS011;65329;52.544;4.662;2024-01-30T03:17:47;15.95;;;10.13;;
76495;SDS011;65329;52.544;4.662;2024-01-30T03:20:14;15.15;;;10.18;;
76495;SDS011;65329;52.544;4.662;2024-01-30T03:22:41;14.32;;;9.77;;
76495;SDS011;65329;52.544;4.662;2024-01-30T03:25:08;19.08;;;10.73;;
76495;SDS011;65329;52.544;4.662;2024-01-30T03:27:35;16.90;;;10.73;;
76495;SDS011;65329;52.544;4.662;2024-01-30T03:30:03;14.57;;;9.63;;
76495;SDS011;65329;52.544;4.662;2024-01-30T03:32:31;16.85;;;11.23;;
76495;SDS011;65329;52.544;4.662;2024-01-30T03:34:58;15.18;;;9.98;;
76495;SDS011;65329;52.544;4.662;2024-01-30T03:37:26;16.00;;;9.20;;
76495;SDS011;65329;52.544;4.662;2024-01-30T03:39:53;17.10;;;10.48;;
76495;SDS011;65329;52.544;4.662;2024-01-30T03:42:20;16.77;;;9.90;;
76495;SDS011;65329;52.544;4.662;2024-01-30T03:44:47;17.83;;;11.38;;
76495;SDS011;65329;52.544;4.662;2024-01-30T03:47:14;18.08;;;8.88;;
76495;SDS011;65329;52.544;4.662;2024-01-30T03:49:42;19.75;;;11.18;;
76495;SDS011;65329;52.544;4.662;2024-01-30T03:52:09;18.02;;;10.70;;
76495;SDS011;65329;52.544;4.662;2024-01-30T03:54:36;19.02;;;10.02;;
76495;SDS011;65329;52.544;4.662;2024-01-30T03:57:03;16.52;;;9.35;;
76495;SDS011;65329;52.544;4.662;2024-01-30T03:59:32;17.65;;;8.80;;
76495;SDS011;65329;52.544;4.662;2024-01-30T04:01:59;20.00;;;9.18;;
76495;SDS011;65329;52.544;4.662;2024-01-30T04:04:27;14.60;;;9.05;;
76495;SDS011;65329;52.544;4.662;2024-01-30T04:06:54;16.95;;;8.50;;
76495;SDS011;65329;52.544;4.662;2024-01-30T04:09:21;16.88;;;9.18;;
76495;SDS011;65329;52.544;4.662;2024-01-30T04:11:48;21.60;;;10.43;;
76495;SDS011;65329;52.544;4.662;2024-01-30T04:14:15;16.80;;;10.10;;
76495;SDS011;65329;52.544;4.662;2024-01-30T04:16:42;14.95;;;9.23;;
76495;SDS011;65329;52.544;4.662;2024-01-30T04:19:09;19.23;;;11.07;;
76495;SDS011;65329;52.544;4.662;2024-01-30T04:21:36;15.98;;;9.90;;
76495;SDS011;65329;52.544;4.662;2024-01-30T04:24:03;14.73;;;9.88;;
76495;SDS011;65329;52.544;4.662;2024-01-30T04:26:30;16.17;;;10.07;;
76495;SDS011;65329;52.544;4.662;2024-01-30T04:28:57;17.40;;;9.52;;
76495;SDS011;65329;52.544;4.662;2024-01-30T04:31:24;15.63;;;10.43;;
76495;SDS011;65329;52.544;4.662;2024-01-30T04:33:51;20.60;;;11.10;;
76495;SDS011;65329;52.544;4.662;2024-01-30T04:36:18;17.20;;;10.40;;
76495;SDS011;65329;52.544;4.662;2024-01-30T04:38:45;17.45;;;9.07;;
76495;SDS011;65329;52.544;4.662;2024-01-30T04:41:12;16.45;;;9.50;;
76495;SDS011;65329;52.544;4.662;2024-01-30T04:43:39;15.10;;;9.23;;
76495;SDS011;65329;52.544;4.662;2024-01-30T04:46:06;14.50;;;9.30;;
76495;SDS011;65329;52.544;4.662;2024-01-30T04:48:33;14.45;;;9.93;;
76495;SDS011;65329;52.544;4.662;2024-01-30T04:51:00;19.67;;;9.88;;
76495;SDS011;65329;52.544;4.662;2024-01-30T04:53:30;14.77;;;9.20;;
76495;SDS011;65329;52.544;4.662;2024-01-30T04:55:57;15.45;;;9.10;;
76495;SDS011;65329;52.544;4.662;2024-01-30T04:58:24;15.48;;;9.77;;
76495;SDS011;65329;52.544;4.662;2024-01-30T05:00:51;15.55;;;9.95;;
76495;SDS011;65329;52.544;4.662;2024-01-30T05:03:21;16.70;;;9.80;;
76495;SDS011;65329;52.544;4.662;2024-01-30T05:05:50;15.63;;;9.27;;
76495;SDS011;65329;52.544;4.662;2024-01-30T05:08:17;15.15;;;9.45;;
76495;SDS011;65329;52.544;4.662;2024-01-30T05:10:44;13.35;;;8.90;;
76495;SDS011;65329;52.544;4.662;2024-01-30T05:13:11;15.82;;;9.25;;
76495;SDS011;65329;52.544;4.662;2024-01-30T05:15:40;19.55;;;10.55;;
76495;SDS011;65329;52.544;4.662;2024-01-30T05:18:07;18.05;;;10.35;;
76495;SDS011;65329;52.544;4.662;2024-01-30T05:20:35;16.38;;;9.35;;
76495;SDS011;65329;52.544;4.662;2024-01-30T05:23:02;13.85;;;8.65;;
76495;SDS011;65329;52.544;4.662;2024-01-30T05:25:29;18.38;;;9.00;;
76495;SDS011;65329;52.544;4.662;2024-01-30T05:27:56;12.88;;;8.18;;
76495;SDS011;65329;52.544;4.662;2024-01-30T05:30:23;16.10;;;9.70;;
76495;SDS011;65329;52.544;4.662;2024-01-30T05:32:50;16.70;;;10.77;;
76495;SDS011;65329;52.544;4.662;2024-01-30T05:35:18;15.45;;;8.98;;
76495;SDS011;65329;52.544;4.662;2024-01-30T05:37:48;15.60;;;9.20;;
76495;SDS011;65329;52.544;4.662;2024-01-30T05:40:15;12.20;;;8.15;;
76495;SDS011;65329;52.544;4.662;2024-01-30T05:42:43;16.08;;;9.00;;
76495;SDS011;65329;52.544;4.662;2024-01-30T05:45:10;15.02;;;9.52;;
76495;SDS011;65329;52.544;4.662;2024-01-30T05:47:36;19.00;;;9.52;;
76495;SDS011;65329;52.544;4.662;2024-01-30T05:50:04;16.23;;;9.38;;
76495;SDS011;65329;52.544;4.662;2024-01-30T05:52:31;14.82;;;8.02;;
76495;SDS011;65329;52.544;4.662;2024-01-30T05:54:58;14.95;;;8.10;;
76495;SDS011;65329;52.544;4.662;2024-01-30T05:57:26;14.13;;;8.77;;
76495;SDS011;65329;52.544;4.662;2024-01-30T05:59:52;13.93;;;8.10;;
76495;SDS011;65329;52.544;4.662;2024-01-30T06:02:19;15.27;;;8.88;;
76495;SDS011;65329;52.544;4.662;2024-01-30T06:04:46;13.45;;;6.93;;
76495;SDS011;65329;52.544;4.662;2024-01-30T06:07:13;17.33;;;8.27;;
76495;SDS011;65329;52.544;4.662;2024-01-30T06:09:40;15.10;;;9.15;;
76495;SDS011;65329;52.544;4.662;2024-01-30T06:12:08;14.20;;;7.80;;
76495;SDS011;65329;52.544;4.662;2024-01-30T06:14:36;15.43;;;8.55;;
76495;SDS011;65329;52.544;4.662;2024-01-30T06:17:03;15.43;;;8.65;;
76495;SDS011;65329;52.544;4.662;2024-01-30T06:19:30;16.60;;;8.98;;
76495;SDS011;65329;52.544;4.662;2024-01-30T06:21:57;12.95;;;8.18;;
76495;SDS011;65329;52.544;4.662;2024-01-30T06:24:25;14.35;;;9.13;;
76495;SDS011;65329;52.544;4.662;2024-01-30T06:26:52;14.23;;;8.95;;
76495;SDS011;65329;52.544;4.662;2024-01-30T06:29:18;13.27;;;7.10;;
76495;SDS011;65329;52.544;4.662;2024-01-30T06:31:45;13.70;;;7.43;;
76495;SDS011;65329;52.544;4.662;2024-01-30T06:34:13;13.82;;;8.40;;
76495;SDS011;65329;52.544;4.662;2024-01-30T06:36:40;15.70;;;8.82;;
76495;SDS011;65329;52.544;4.662;2024-01-30T06:39:07;13.02;;;7.65;;
76495;SDS011;65329;52.544;4.662;2024-01-30T06:41:34;14.55;;;6.78;;
76495;SDS011;65329;52.544;4.662;2024-01-30T06:44:02;14.13;;;6.95;;
76495;SDS011;65329;52.544;4.662;2024-01-30T06:46:30;14.30;;;8.95;;
76495;SDS011;65329;52.544;4.662;2024-01-30T06:48:57;13.38;;;8.43;;
76495;SDS011;65329;52.544;4.662;2024-01-30T06:51:25;14.27;;;8.40;;
76495;SDS011;65329;52.544;4.662;2024-01-30T06:53:52;14.90;;;8.48;;
76495;SDS011;65329;52.544;4.662;2024-01-30T06:56:19;11.88;;;6.97;;
76495;SDS011;65329;52.544;4.662;2024-01-30T06:58:49;15.23;;;8.05;;
76495;SDS011;65329;52.544;4.662;2024-01-30T07:01:16;12.45;;;7.75;;
76495;SDS011;65329;52.544;4.662;2024-01-30T07:03:43;16.95;;;7.60;;
76495;SDS011;65329;52.544;4.662;2024-01-30T07:06:11;17.98;;;10.00;;
76495;SDS011;65329;52.544;4.662;2024-01-30T07:08:38;13.15;;;7.40;;
76495;SDS011;65329;52.544;4.662;2024-01-30T07:11:06;18.30;;;8.55;;
76495;SDS011;65329;52.544;4.662;2024-01-30T07:13:34;17.75;;;7.60;;
76495;SDS011;65329;52.544;4.662;2024-01-30T07:16:01;16.15;;;7.45;;
76495;SDS011;65329;52.544;4.662;2024-01-30T07:18:28;14.95;;;7.80;;
76495;SDS011;65329;52.544;4.662;2024-01-30T07:20:55;12.50;;;7.05;;
76495;SDS011;65329;52.544;4.662;2024-01-30T07:23:22;12.00;;;6.88;;
76495;SDS011;65329;52.544;4.662;2024-01-30T07:25:50;15.75;;;8.07;;
76495;SDS011;65329;52.544;4.662;2024-01-30T07:28:18;14.27;;;7.53;;
76495;SDS011;65329;52.544;4.662;2024-01-30T07:30:45;12.45;;;6.93;;
76495;SDS011;65329;52.544;4.662;2024-01-30T07:33:12;13.55;;;7.22;;
76495;SDS011;65329;52.544;4.662;2024-01-30T07:35:40;13.38;;;6.40;;
76495;SDS011;65329;52.544;4.662;2024-01-30T07:38:07;14.63;;;7.35;;
76495;SDS011;65329;52.544;4.662;2024-01-30T07:40:34;13.07;;;6.97;;
76495;SDS011;65329;52.544;4.662;2024-01-30T07:43:01;14.45;;;8.75;;
76495;SDS011;65329;52.544;4.662;2024-01-30T07:45:30;15.82;;;7.25;;
76495;SDS011;65329;52.544;4.662;2024-01-30T07:47:59;14.57;;;7.95;;
76495;SDS011;65329;52.544;4.662;2024-01-30T07:50:27;12.38;;;6.85;;
76495;SDS011;65329;52.544;4.662;2024-01-30T07:52:55;16.55;;;7.78;;
76495;SDS011;65329;52.544;4.662;2024-01-30T07:55:23;19.17;;;10.02;;
76495;SDS011;65329;52.544;4.662;2024-01-30T07:57:58;16.23;;;8.57;;
76495;SDS011;65329;52.544;4.662;2024-01-30T08:00:26;15.57;;;8.13;;
76495;SDS011;65329;52.544;4.662;2024-01-30T08:02:54;19.08;;;7.97;;
76495;SDS011;65329;52.544;4.662;2024-01-30T08:05:22;15.32;;;7.70;;
76495;SDS011;65329;52.544;4.662;2024-01-30T08:07:50;16.05;;;8.80;;
76495;SDS011;65329;52.544;4.662;2024-01-30T08:10:18;13.27;;;8.70;;
76495;SDS011;65329;52.544;4.662;2024-01-30T08:12:45;17.67;;;7.95;;
76495;SDS011;65329;52.544;4.662;2024-01-30T08:15:13;10.38;;;6.13;;
76495;SDS011;65329;52.544;4.662;2024-01-30T08:17:41;14.40;;;7.20;;
76495;SDS011;65329;52.544;4.662;2024-01-30T08:20:08;11.60;;;6.63;;
76495;SDS011;65329;52.544;4.662;2024-01-30T08:22:38;16.75;;;6.75;;
76495;SDS011;65329;52.544;4.662;2024-01-30T08:25:06;11.05;;;7.22;;
76495;SDS011;65329;52.544;4.662;2024-01-30T08:27:35;13.13;;;6.68;;
76495;SDS011;65329;52.544;4.662;2024-01-30T08:30:05;17.90;;;6.20;;
76495;SDS011;65329;52.544;4.662;2024-01-30T08:32:33;13.00;;;6.00;;
76495;SDS011;65329;52.544;4.662;2024-01-30T08:35:00;14.55;;;6.45;;
76495;SDS011;65329;52.544;4.662;2024-01-30T08:37:30;15.57;;;5.97;;
76495;SDS011;65329;52.544;4.662;2024-01-30T08:39:58;11.80;;;5.25;;
76495;SDS011;65329;52.544;4.662;2024-01-30T08:42:26;16.08;;;6.15;;
76495;SDS011;65329;52.544;4.662;2024-01-30T08:44:53;14.57;;;4.88;;
76495;SDS011;65329;52.544;4.662;2024-01-30T08:47:21;12.00;;;5.43;;
76495;SDS011;65329;52.544;4.662;2024-01-30T08:49:48;8.80;;;4.07;;
76495;SDS011;65329;52.544;4.662;2024-01-30T08:52:15;7.25;;;4.40;;
76495;SDS011;65329;52.544;4.662;2024-01-30T08:54:42;15.55;;;4.00;;
76495;SDS011;65329;52.544;4.662;2024-01-30T08:57:10;7.57;;;2.78;;
76495;SDS011;65329;52.544;4.662;2024-01-30T08:59:38;10.57;;;3.95;;
76495;SDS011;65329;52.544;4.662;2024-01-30T09:02:06;12.32;;;3.85;;
76495;SDS011;65329;52.544;4.662;2024-01-30T09:04:38;8.95;;;2.58;;
76495;SDS011;65329;52.544;4.662;2024-01-30T09:07:06;8.18;;;2.60;;
76495;SDS011;65329;52.544;4.662;2024-01-30T09:09:40;13.50;;;3.78;;
76495;SDS011;65329;52.544;4.662;2024-01-30T09:12:08;8.70;;;2.97;;
76495;SDS011;65329;52.544;4.662;2024-01-30T09:14:39;7.18;;;2.65;;
76495;SDS011;65329;52.544;4.662;2024-01-30T09:17:07;8.93;;;2.70;;
76495;SDS011;65329;52.544;4.662;2024-01-30T09:19:35;10.35;;;2.88;;
76495;SDS011;65329;52.544;4.662;2024-01-30T09:22:02;8.90;;;2.15;;
76495;SDS011;65329;52.544;4.662;2024-01-30T09:24:30;6.85;;;2.13;;
76495;SDS011;65329;52.544;4.662;2024-01-30T09:26:57;9.73;;;1.90;;
76495;SDS011;65329;52.544;4.662;2024-01-30T09:29:24;8.93;;;2.33;;
76495;SDS011;65329;52.544;4.662;2024-01-30T09:31:52;11.35;;;1.77;;
76495;SDS011;65329;52.544;4.662;2024-01-30T09:34:19;10.00;;;2.28;;
76495;SDS011;65329;52.544;4.662;2024-01-30T09:36:47;10.45;;;2.10;;
76495;SDS011;65329;52.544;4.662;2024-01-30T09:39:14;7.63;;;2.63;;
76495;SDS011;65329;52.544;4.662;2024-01-30T09:41:49;8.20;;;1.67;;
76495;SDS011;65329;52.544;4.662;2024-01-30T09:44:37;10.85;;;1.80;;
76495;SDS011;65329;52.544;4.662;2024-01-30T09:47:04;10.25;;;1.58;;
76495;SDS011;65329;52.544;4.662;2024-01-30T09:49:32;11.25;;;2.10;;
76495;SDS011;65329;52.544;4.662;2024-01-30T09:52:02;9.75;;;2.30;;
76495;SDS011;65329;52.544;4.662;2024-01-30T09:54:30;6.53;;;1.33;;
76495;SDS011;65329;52.544;4.662;2024-01-30T09:57:02;13.60;;;1.58;;
76495;SDS011;65329;52.544;4.662;2024-01-30T09:59:31;10.63;;;1.15;;
76495;SDS011;65329;52.544;4.662;2024-01-30T10:02:00;8.60;;;1.42;;
76495;SDS011;65329;52.544;4.662;2024-01-30T10:04:28;10.18;;;2.10;;
76495;SDS011;65329;52.544;4.662;2024-01-30T10:06:55;7.00;;;1.20;;
76495;SDS011;65329;52.544;4.662;2024-01-30T10:09:23;6.38;;;1.08;;
76495;SDS011;65329;52.544;4.662;2024-01-30T10:11:51;6.57;;;1.65;;
76495;SDS011;65329;52.544;4.662;2024-01-30T10:14:18;5.55;;;1.92;;
76495;SDS011;65329;52.544;4.662;2024-01-30T10:16:46;9.55;;;1.30;;
76495;SDS011;65329;52.544;4.662;2024-01-30T10:19:13;11.27;;;1.98;;
76495;SDS011;65329;52.544;4.662;2024-01-30T10:21:41;5.18;;;1.45;;
76495;SDS011;65329;52.544;4.662;2024-01-30T10:24:09;9.27;;;1.80;;
76495;SDS011;65329;52.544;4.662;2024-01-30T10:26:39;11.63;;;2.17;;
76495;SDS011;65329;52.544;4.662;2024-01-30T10:29:06;7.32;;;1.88;;
76495;SDS011;65329;52.544;4.662;2024-01-30T10:31:34;7.63;;;1.55;;
76495;SDS011;65329;52.544;4.662;2024-01-30T10:34:01;12.32;;;1.42;;
76495;SDS011;65329;52.544;4.662;2024-01-30T10:36:42;5.10;;;1.00;;
76495;SDS011;65329;52.544;4.662;2024-01-30T10:39:13;6.40;;;1.40;;
76495;SDS011;65329;52.544;4.662;2024-01-30T10:41:43;8.25;;;1.30;;
76495;SDS011;65329;52.544;4.662;2024-01-30T10:44:11;6.80;;;1.58;;
76495;SDS011;65329;52.544;4.662;2024-01-30T10:46:41;14.07;;;1.85;;
76495;SDS011;65329;52.544;4.662;2024-01-30T10:49:12;11.40;;;0.95;;
76495;SDS011;65329;52.544;4.662;2024-01-30T10:51:42;10.88;;;1.80;;
76495;SDS011;65329;52.544;4.662;2024-01-30T10:54:10;3.80;;;0.82;;
76495;SDS011;65329;52.544;4.662;2024-01-30T10:56:39;11.68;;;1.42;;
76495;SDS011;65329;52.544;4.662;2024-01-30T10:59:06;8.60;;;1.48;;
76495;SDS011;65329;52.544;4.662;2024-01-30T11:01:37;7.22;;;1.85;;
76495;SDS011;65329;52.544;4.662;2024-01-30T11:04:04;4.25;;;0.82;;
76495;SDS011;65329;52.544;4.662;2024-01-30T11:06:32;6.88;;;1.38;;
76495;SDS011;65329;52.544;4.662;2024-01-30T11:09:10;11.02;;;1.80;;
76495;SDS011;65329;52.544;4.662;2024-01-30T11:11:49;5.97;;;1.50;;
76495;SDS011;65329;52.544;4.662;2024-01-30T11:14:27;10.15;;;1.10;;
76495;SDS011;65329;52.544;4.662;2024-01-30T11:16:59;3.85;;;1.15;;
76495;SDS011;65329;52.544;4.662;2024-01-30T11:19:27;6.45;;;1.02;;
76495;SDS011;65329;52.544;4.662;2024-01-30T11:22:00;4.45;;;1.15;;
76495;SDS011;65329;52.544;4.662;2024-01-30T11:24:30;11.27;;;2.13;;
76495;SDS011;65329;52.544;4.662;2024-01-30T11:27:07;7.20;;;1.02;;
76495;SDS011;65329;52.544;4.662;2024-01-30T11:29:36;15.27;;;2.13;;
76495;SDS011;65329;52.544;4.662;2024-01-30T11:32:04;7.93;;;1.52;;
76495;SDS011;65329;52.544;4.662;2024-01-30T11:34:32;9.32;;;1.52;;
76495;SDS011;65329;52.544;4.662;2024-01-30T11:37:03;7.82;;;1.20;;
76495;SDS011;65329;52.544;4.662;2024-01-30T11:39:34;12.05;;;1.30;;
76495;SDS011;65329;52.544;4.662;2024-01-30T11:42:03;4.35;;;1.30;;
76495;SDS011;65329;52.544;4.662;2024-01-30T11:44:32;9.43;;;1.60;;
76495;SDS011;65329;52.544;4.662;2024-01-30T11:46:59;11.35;;;1.83;;
76495;SDS011;65329;52.544;4.662;2024-01-30T11:49:26;14.70;;;1.73;;
76495;SDS011;65329;52.544;4.662;2024-01-30T11:51:53;11.68;;;1.48;;
76495;SDS011;65329;52.544;4.662;2024-01-30T11:54:21;8.90;;;1.50;;
76495;SDS011;65329;52.544;4.662;2024-01-30T11:56:48;11.00;;;1.63;;
76495;SDS011;65329;52.544;4.662;2024-01-30T11:59:15;5.22;;;1.38;;
76495;SDS011;65329;52.544;4.662;2024-01-30T12:01:42;7.55;;;1.52;;
76495;SDS011;65329;52.544;4.662;2024-01-30T12:04:10;3.80;;;1.13;;
76495;SDS011;65329;52.544;4.662;2024-01-30T12:06:39;11.88;;;2.25;;
76495;SDS011;65329;52.544;4.662;2024-01-30T12:09:07;12.23;;;1.58;;
76495;SDS011;65329;52.544;4.662;2024-01-30T12:11:48;9.38;;;1.23;;
76495;SDS011;65329;52.544;4.662;2024-01-30T12:14:18;11.85;;;2.22;;
76495;SDS011;65329;52.544;4.662;2024-01-30T12:16:49;10.85;;;1.67;;
76495;SDS011;65329;52.544;4.662;2024-01-30T12:19:21;8.70;;;1.67;;
76495;SDS011;65329;52.544;4.662;2024-01-30T12:21:58;12.43;;;1.83;;
76495;SDS011;65329;52.544;4.662;2024-01-30T12:24:26;4.47;;;1.25;;
76495;SDS011;65329;52.544;4.662;2024-01-30T12:26:58;15.05;;;2.10;;
76495;SDS011;65329;52.544;4.662;2024-01-30T12:29:25;7.60;;;1.30;;
76495;SDS011;65329;52.544;4.662;2024-01-30T12:31:58;7.30;;;2.05;;
76495;SDS011;65329;52.544;4.662;2024-01-30T12:34:26;10.70;;;2.20;;
76495;SDS011;65329;52.544;4.662;2024-01-30T12:36:54;9.35;;;1.80;;
76495;SDS011;65329;52.544;4.662;2024-01-30T12:39:21;11.43;;;1.92;;
76495;SDS011;65329;52.544;4.662;2024-01-30T12:41:49;9.50;;;1.52;;
76495;SDS011;65329;52.544;4.662;2024-01-30T12:44:15;4.82;;;1.40;;
76495;SDS011;65329;52.544;4.662;2024-01-30T12:46:43;4.10;;;1.17;;
76495;SDS011;65329;52.544;4.662;2024-01-30T12:49:12;7.97;;;1.25;;
76495;SDS011;65329;52.544;4.662;2024-01-30T12:51:39;8.07;;;0.90;;
76495;SDS011;65329;52.544;4.662;2024-01-30T12:54:06;5.10;;;1.35;;
76495;SDS011;65329;52.544;4.662;2024-01-30T12:56:34;5.30;;;1.38;;
76495;SDS011;65329;52.544;4.662;2024-01-30T12:59:01;4.82;;;0.93;;
76495;SDS011;65329;52.544;4.662;2024-01-30T13:01:29;6.28;;;1.85;;
76495;SDS011;65329;52.544;4.662;2024-01-30T13:03:56;4.85;;;0.88;;
76495;SDS011;65329;52.544;4.662;2024-01-30T13:06:27;5.18;;;0.88;;
76495;SDS011;65329;52.544;4.662;2024-01-30T13:08:54;4.20;;;0.73;;
76495;SDS011;65329;52.544;4.662;2024-01-30T13:11:21;4.00;;;0.77;;
76495;SDS011;65329;52.544;4.662;2024-01-30T13:13:48;7.82;;;1.25;;
76495;SDS011;65329;52.544;4.662;2024-01-30T13:16:15;5.47;;;1.13;;
76495;SDS011;65329;52.544;4.662;2024-01-30T13:18:43;4.47;;;1.38;;
76495;SDS011;65329;52.544;4.662;2024-01-30T13:21:11;7.07;;;1.52;;
76495;SDS011;65329;52.544;4.662;2024-01-30T13:23:39;5.78;;;1.10;;
76495;SDS011;65329;52.544;4.662;2024-01-30T13:26:07;2.90;;;0.80;;
76495;SDS011;65329;52.544;4.662;2024-01-30T13:28:34;5.88;;;1.65;;
76495;SDS011;65329;52.544;4.662;2024-01-30T13:31:01;6.65;;;1.60;;
76495;SDS011;65329;52.544;4.662;2024-01-30T13:33:29;9.88;;;1.40;;
76495;SDS011;65329;52.544;4.662;2024-01-30T13:35:56;4.97;;;1.52;;
76495;SDS011;65329;52.544;4.662;2024-01-30T13:38:23;5.72;;;0.75;;
76495;SDS011;65329;52.544;4.662;2024-01-30T13:40:50;7.93;;;1.40;;
76495;SDS011;65329;52.544;4.662;2024-01-30T13:43:17;7.03;;;1.55;;
76495;SDS011;65329;52.544;4.662;2024-01-30T13:45:44;6.88;;;1.27;;
76495;SDS011;65329;52.544;4.662;2024-01-30T13:48:12;6.28;;;1.17;;
76495;SDS011;65329;52.544;4.662;2024-01-30T13:50:40;4.75;;;1.40;;
76495;SDS011;65329;52.544;4.662;2024-01-30T13:53:07;6.53;;;1.90;;
76495;SDS011;65329;52.544;4.662;2024-01-30T13:55:35;7.85;;;1.70;;
76495;SDS011;65329;52.544;4.662;2024-01-30T13:58:02;5.90;;;2.15;;
76495;SDS011;65329;52.544;4.662;2024-01-30T14:00:30;8.93;;;2.20;;
76495;SDS011;65329;52.544;4.662;2024-01-30T14:02:57;6.55;;;1.77;;
76495;SDS011;65329;52.544;4.662;2024-01-30T14:05:25;10.23;;;2.10;;
76495;SDS011;65329;52.544;4.662;2024-01-30T14:07:54;5.07;;;2.05;;
76495;SDS011;65329;52.544;4.662;2024-01-30T14:10:21;8.80;;;2.20;;
76495;SDS011;65329;52.544;4.662;2024-01-30T14:12:48;7.80;;;2.33;;
76495;SDS011;65329;52.544;4.662;2024-01-30T14:15:16;7.03;;;2.40;;
76495;SDS011;65329;52.544;4.662;2024-01-30T14:17:54;7.88;;;2.75;;
76495;SDS011;65329;52.544;4.662;2024-01-30T14:20:22;8.30;;;2.75;;
76495;SDS011;65329;52.544;4.662;2024-01-30T14:22:50;10.10;;;2.97;;
76495;SDS011;65329;52.544;4.662;2024-01-30T14:25:18;12.40;;;3.25;;
76495;SDS011;65329;52.544;4.662;2024-01-30T14:27:46;10.00;;;2.78;;
76495;SDS011;65329;52.544;4.662;2024-01-30T14:30:13;8.20;;;2.65;;
76495;SDS011;65329;52.544;4.662;2024-01-30T14:32:41;9.52;;;3.38;;
76495;SDS011;65329;52.544;4.662;2024-01-30T14:35:11;11.30;;;3.30;;
76495;SDS011;65329;52.544;4.662;2024-01-30T14:37:38;10.63;;;3.20;;
76495;SDS011;65329;52.544;4.662;2024-01-30T14:40:07;13.75;;;3.20;;